sensor_id;sensor_type;location;lat;lon;timestamp;P1;durP1;ratioP1;P2;durP2;ratioP2
57822;SDS011;43650;48.064;20.624;2022-07-17T00:00:14;2.57;;;1.30;;
57822;SDS011;43650;48.064;20.624;2022-07-17T00:01:14;2.37;;;1.65;;
57822;SDS011;43650;48.064;20.624;2022-07-17T00:02:15;4.50;;;1.87;;
57822;SDS011;43650;48.064;20.624;2022-07-17T00:03:16;3.53;;;1.48;;
57822;SDS011;43650;48.064;20.624;2022-07-17T00:05:17;2.28;;;1.52;;
57822;SDS011;43650;48.064;20.624;2022-07-17T00:06:18;2.85;;;1.60;;
57822;SDS011;43650;48.064;20.624;2022-07-17T00:07:18;3.60;;;1.77;;
57822;SDS011;43650;48.064;20.624;2022-07-17T00:08:19;4.33;;;1.67;;
57822;SDS011;43650;48.064;20.624;2022-07-17T00:09:19;2.70;;;1.23;;
57822;SDS011;43650;48.064;20.624;2022-07-17T00:10:20;3.33;;;1.40;;
57822;SDS011;43650;48.064;20.624;2022-07-17T00:11:20;3.37;;;1.50;;
57822;SDS011;43650;48.064;20.624;2022-07-17T00:12:20;3.00;;;1.90;;
57822;SDS011;43650;48.064;20.624;2022-07-17T00:13:21;2.63;;;1.77;;
57822;SDS011;43650;48.064;20.624;2022-07-17T00:14:21;1.57;;;1.37;;
57822;SDS011;43650;48.064;20.624;2022-07-17T00:15:22;2.90;;;1.93;;
57822;SDS011;43650;48.064;20.624;2022-07-17T00:16:22;2.67;;;1.50;;
57822;SDS011;43650;48.064;20.624;2022-07-17T00:17:23;2.57;;;1.57;;
57822;SDS011;43650;48.064;20.624;2022-07-17T00:18:24;3.60;;;1.95;;
57822;SDS011;43650;48.064;20.624;2022-07-17T00:19:24;3.53;;;1.23;;
57822;SDS011;43650;48.064;20.624;2022-07-17T00:20:29;2.97;;;1.65;;
57822;SDS011;43650;48.064;20.624;2022-07-17T00:21:30;3.83;;;1.85;;
57822;SDS011;43650;48.064;20.624;2022-07-17T00:22:30;2.20;;;1.50;;
57822;SDS011;43650;48.064;20.624;2022-07-17T00:23:30;2.27;;;1.60;;
57822;SDS011;43650;48.064;20.624;2022-07-17T00:24:31;2.80;;;1.70;;
57822;SDS011;43650;48.064;20.624;2022-07-17T00:25:31;3.10;;;1.70;;
57822;SDS011;43650;48.064;20.624;2022-07-17T00:26:35;2.87;;;1.45;;
57822;SDS011;43650;48.064;20.624;2022-07-17T00:27:36;3.80;;;1.50;;
57822;SDS011;43650;48.064;20.624;2022-07-17T00:28:37;2.58;;;1.40;;
57822;SDS011;43650;48.064;20.624;2022-07-17T00:29:37;3.30;;;1.50;;
57822;SDS011;43650;48.064;20.624;2022-07-17T00:30:38;2.30;;;1.23;;
57822;SDS011;43650;48.064;20.624;2022-07-17T00:31:38;2.27;;;1.50;;
57822;SDS011;43650;48.064;20.624;2022-07-17T00:32:39;1.83;;;1.23;;
57822;SDS011;43650;48.064;20.624;2022-07-17T00:33:40;1.30;;;1.20;;
57822;SDS011;43650;48.064;20.624;2022-07-17T00:34:41;4.72;;;1.30;;
57822;SDS011;43650;48.064;20.624;2022-07-17T00:35:42;3.33;;;1.80;;
57822;SDS011;43650;48.064;20.624;2022-07-17T00:36:42;2.87;;;1.70;;
57822;SDS011;43650;48.064;20.624;2022-07-17T00:37:44;2.83;;;1.30;;
57822;SDS011;43650;48.064;20.624;2022-07-17T00:38:45;4.18;;;1.55;;
57822;SDS011;43650;48.064;20.624;2022-07-17T00:39:45;1.87;;;1.30;;
57822;SDS011;43650;48.064;20.624;2022-07-17T00:40:46;2.13;;;1.30;;
57822;SDS011;43650;48.064;20.624;2022-07-17T00:41:46;2.57;;;1.27;;
57822;SDS011;43650;48.064;20.624;2022-07-17T00:42:47;2.43;;;1.50;;
57822;SDS011;43650;48.064;20.624;2022-07-17T00:43:47;5.35;;;1.40;;
57822;SDS011;43650;48.064;20.624;2022-07-17T00:44:48;1.03;;;1.00;;
57822;SDS011;43650;48.064;20.624;2022-07-17T00:45:55;3.67;;;1.80;;
57822;SDS011;43650;48.064;20.624;2022-07-17T00:46:56;3.37;;;1.02;;
57822;SDS011;43650;48.064;20.624;2022-07-17T00:47:59;1.83;;;1.30;;
57822;SDS011;43650;48.064;20.624;2022-07-17T00:49:04;3.40;;;1.23;;
57822;SDS011;43650;48.064;20.624;2022-07-17T00:50:05;1.50;;;1.20;;
57822;SDS011;43650;48.064;20.624;2022-07-17T00:51:06;3.10;;;1.15;;
57822;SDS011;43650;48.064;20.624;2022-07-17T00:52:07;1.95;;;1.50;;
57822;SDS011;43650;48.064;20.624;2022-07-17T00:54:11;2.87;;;1.70;;
57822;SDS011;43650;48.064;20.624;2022-07-17T00:55:12;1.95;;;1.33;;
57822;SDS011;43650;48.064;20.624;2022-07-17T00:56:13;1.75;;;1.15;;
57822;SDS011;43650;48.064;20.624;2022-07-17T00:57:15;3.37;;;1.70;;
57822;SDS011;43650;48.064;20.624;2022-07-17T00:58:20;4.90;;;1.50;;
57822;SDS011;43650;48.064;20.624;2022-07-17T00:59:22;2.72;;;1.40;;
57822;SDS011;43650;48.064;20.624;2022-07-17T01:00:25;2.60;;;1.40;;
57822;SDS011;43650;48.064;20.624;2022-07-17T01:01:25;3.10;;;1.53;;
57822;SDS011;43650;48.064;20.624;2022-07-17T01:02:26;2.77;;;1.17;;
57822;SDS011;43650;48.064;20.624;2022-07-17T01:03:26;1.97;;;1.30;;
57822;SDS011;43650;48.064;20.624;2022-07-17T01:04:26;2.70;;;1.53;;
57822;SDS011;43650;48.064;20.624;2022-07-17T01:05:27;2.47;;;1.40;;
57822;SDS011;43650;48.064;20.624;2022-07-17T01:06:27;4.40;;;2.03;;
57822;SDS011;43650;48.064;20.624;2022-07-17T01:07:28;2.10;;;1.60;;
57822;SDS011;43650;48.064;20.624;2022-07-17T01:08:28;3.43;;;1.67;;
57822;SDS011;43650;48.064;20.624;2022-07-17T01:09:30;1.70;;;1.55;;
57822;SDS011;43650;48.064;20.624;2022-07-17T01:10:31;1.75;;;1.10;;
57822;SDS011;43650;48.064;20.624;2022-07-17T01:11:31;1.77;;;1.33;;
57822;SDS011;43650;48.064;20.624;2022-07-17T01:12:33;2.15;;;1.65;;
57822;SDS011;43650;48.064;20.624;2022-07-17T01:13:33;3.70;;;1.80;;
57822;SDS011;43650;48.064;20.624;2022-07-17T01:14:34;1.87;;;1.50;;
57822;SDS011;43650;48.064;20.624;2022-07-17T01:15:38;7.80;;;3.00;;
57822;SDS011;43650;48.064;20.624;2022-07-17T01:16:39;2.60;;;1.60;;
57822;SDS011;43650;48.064;20.624;2022-07-17T01:17:40;2.72;;;1.37;;
57822;SDS011;43650;48.064;20.624;2022-07-17T01:18:41;2.65;;;1.50;;
57822;SDS011;43650;48.064;20.624;2022-07-17T01:19:41;2.80;;;1.37;;
57822;SDS011;43650;48.064;20.624;2022-07-17T01:20:43;3.27;;;2.00;;
57822;SDS011;43650;48.064;20.624;2022-07-17T01:21:46;2.17;;;1.60;;
57822;SDS011;43650;48.064;20.624;2022-07-17T01:22:49;1.90;;;1.40;;
57822;SDS011;43650;48.064;20.624;2022-07-17T01:23:50;3.58;;;1.55;;
57822;SDS011;43650;48.064;20.624;2022-07-17T01:24:50;4.83;;;1.40;;
57822;SDS011;43650;48.064;20.624;2022-07-17T01:25:51;2.10;;;1.50;;
57822;SDS011;43650;48.064;20.624;2022-07-17T01:26:51;5.50;;;1.57;;
57822;SDS011;43650;48.064;20.624;2022-07-17T01:27:52;2.08;;;1.33;;
57822;SDS011;43650;48.064;20.624;2022-07-17T01:28:52;3.40;;;1.33;;
57822;SDS011;43650;48.064;20.624;2022-07-17T01:29:55;2.93;;;1.77;;
57822;SDS011;43650;48.064;20.624;2022-07-17T01:30:56;3.78;;;1.58;;
57822;SDS011;43650;48.064;20.624;2022-07-17T01:31:57;1.52;;;1.42;;
57822;SDS011;43650;48.064;20.624;2022-07-17T01:32:57;5.30;;;1.40;;
57822;SDS011;43650;48.064;20.624;2022-07-17T01:33:58;2.73;;;1.83;;
57822;SDS011;43650;48.064;20.624;2022-07-17T01:34:59;3.53;;;1.17;;
57822;SDS011;43650;48.064;20.624;2022-07-17T01:36:00;1.98;;;1.40;;
57822;SDS011;43650;48.064;20.624;2022-07-17T01:37:00;1.93;;;1.40;;
57822;SDS011;43650;48.064;20.624;2022-07-17T01:38:01;2.27;;;1.37;;
57822;SDS011;43650;48.064;20.624;2022-07-17T01:39:02;3.80;;;1.83;;
57822;SDS011;43650;48.064;20.624;2022-07-17T01:40:03;2.35;;;1.30;;
57822;SDS011;43650;48.064;20.624;2022-07-17T01:41:07;1.83;;;1.33;;
57822;SDS011;43650;48.064;20.624;2022-07-17T01:42:07;1.40;;;1.30;;
57822;SDS011;43650;48.064;20.624;2022-07-17T01:43:08;6.25;;;1.30;;
57822;SDS011;43650;48.064;20.624;2022-07-17T01:44:09;2.15;;;1.40;;
57822;SDS011;43650;48.064;20.624;2022-07-17T01:45:10;2.47;;;1.40;;
57822;SDS011;43650;48.064;20.624;2022-07-17T01:46:11;2.58;;;1.48;;
57822;SDS011;43650;48.064;20.624;2022-07-17T01:47:12;2.77;;;1.83;;
57822;SDS011;43650;48.064;20.624;2022-07-17T01:48:24;1.73;;;1.40;;
57822;SDS011;43650;48.064;20.624;2022-07-17T01:49:25;1.65;;;1.23;;
57822;SDS011;43650;48.064;20.624;2022-07-17T01:50:26;2.43;;;1.27;;
57822;SDS011;43650;48.064;20.624;2022-07-17T01:51:27;2.83;;;1.33;;
57822;SDS011;43650;48.064;20.624;2022-07-17T01:52:27;1.45;;;0.93;;
57822;SDS011;43650;48.064;20.624;2022-07-17T01:53:28;3.55;;;1.30;;
57822;SDS011;43650;48.064;20.624;2022-07-17T01:54:29;4.60;;;1.30;;
57822;SDS011;43650;48.064;20.624;2022-07-17T01:56:30;1.40;;;1.00;;
57822;SDS011;43650;48.064;20.624;2022-07-17T01:57:30;3.77;;;1.30;;
57822;SDS011;43650;48.064;20.624;2022-07-17T01:58:31;2.50;;;1.60;;
57822;SDS011;43650;48.064;20.624;2022-07-17T01:59:31;3.30;;;1.40;;
57822;SDS011;43650;48.064;20.624;2022-07-17T02:00:32;2.60;;;1.03;;
57822;SDS011;43650;48.064;20.624;2022-07-17T02:01:32;1.83;;;1.40;;
57822;SDS011;43650;48.064;20.624;2022-07-17T02:02:33;2.57;;;1.50;;
57822;SDS011;43650;48.064;20.624;2022-07-17T02:03:34;2.10;;;1.35;;
57822;SDS011;43650;48.064;20.624;2022-07-17T02:04:35;1.47;;;1.23;;
57822;SDS011;43650;48.064;20.624;2022-07-17T02:05:36;1.75;;;1.25;;
57822;SDS011;43650;48.064;20.624;2022-07-17T02:06:37;2.67;;;1.33;;
57822;SDS011;43650;48.064;20.624;2022-07-17T02:07:37;1.57;;;1.03;;
57822;SDS011;43650;48.064;20.624;2022-07-17T02:08:39;3.70;;;1.10;;
57822;SDS011;43650;48.064;20.624;2022-07-17T02:09:40;1.40;;;1.00;;
57822;SDS011;43650;48.064;20.624;2022-07-17T02:10:40;3.43;;;1.10;;
57822;SDS011;43650;48.064;20.624;2022-07-17T02:11:41;2.40;;;1.27;;
57822;SDS011;43650;48.064;20.624;2022-07-17T02:12:42;2.57;;;1.43;;
57822;SDS011;43650;48.064;20.624;2022-07-17T02:13:43;1.85;;;1.08;;
57822;SDS011;43650;48.064;20.624;2022-07-17T02:14:44;1.67;;;1.30;;
57822;SDS011;43650;48.064;20.624;2022-07-17T02:15:44;2.87;;;1.00;;
57822;SDS011;43650;48.064;20.624;2022-07-17T02:16:45;3.07;;;1.00;;
57822;SDS011;43650;48.064;20.624;2022-07-17T02:17:45;1.30;;;1.03;;
57822;SDS011;43650;48.064;20.624;2022-07-17T02:18:46;1.40;;;1.00;;
57822;SDS011;43650;48.064;20.624;2022-07-17T02:19:46;1.57;;;0.90;;
57822;SDS011;43650;48.064;20.624;2022-07-17T02:20:46;1.10;;;0.80;;
57822;SDS011;43650;48.064;20.624;2022-07-17T02:21:49;1.15;;;1.00;;
57822;SDS011;43650;48.064;20.624;2022-07-17T02:22:50;4.27;;;1.57;;
57822;SDS011;43650;48.064;20.624;2022-07-17T02:23:50;2.13;;;1.63;;
57822;SDS011;43650;48.064;20.624;2022-07-17T02:24:51;4.37;;;1.30;;
57822;SDS011;43650;48.064;20.624;2022-07-17T02:25:51;2.03;;;1.43;;
57822;SDS011;43650;48.064;20.624;2022-07-17T02:26:51;2.97;;;1.37;;
57822;SDS011;43650;48.064;20.624;2022-07-17T02:27:52;1.37;;;1.00;;
57822;SDS011;43650;48.064;20.624;2022-07-17T02:28:52;4.30;;;0.90;;
57822;SDS011;43650;48.064;20.624;2022-07-17T02:29:54;2.37;;;1.02;;
57822;SDS011;43650;48.064;20.624;2022-07-17T02:30:54;1.63;;;1.17;;
57822;SDS011;43650;48.064;20.624;2022-07-17T02:31:55;1.92;;;1.00;;
57822;SDS011;43650;48.064;20.624;2022-07-17T02:32:55;1.63;;;0.90;;
57822;SDS011;43650;48.064;20.624;2022-07-17T02:33:56;1.30;;;1.03;;
57822;SDS011;43650;48.064;20.624;2022-07-17T02:34:56;2.07;;;1.17;;
57822;SDS011;43650;48.064;20.624;2022-07-17T02:35:57;2.23;;;1.13;;
57822;SDS011;43650;48.064;20.624;2022-07-17T02:36:57;2.17;;;1.33;;
57822;SDS011;43650;48.064;20.624;2022-07-17T02:37:58;1.00;;;0.90;;
57822;SDS011;43650;48.064;20.624;2022-07-17T02:38:58;2.57;;;1.00;;
57822;SDS011;43650;48.064;20.624;2022-07-17T02:39:59;4.90;;;1.27;;
57822;SDS011;43650;48.064;20.624;2022-07-17T02:40:59;5.33;;;1.40;;
57822;SDS011;43650;48.064;20.624;2022-07-17T02:42:00;1.17;;;0.80;;
57822;SDS011;43650;48.064;20.624;2022-07-17T02:43:00;1.30;;;1.00;;
57822;SDS011;43650;48.064;20.624;2022-07-17T02:44:01;1.83;;;1.00;;
57822;SDS011;43650;48.064;20.624;2022-07-17T02:45:02;1.83;;;0.87;;
57822;SDS011;43650;48.064;20.624;2022-07-17T02:46:02;1.30;;;1.00;;
57822;SDS011;43650;48.064;20.624;2022-07-17T02:47:03;1.17;;;1.00;;
57822;SDS011;43650;48.064;20.624;2022-07-17T02:48:04;2.70;;;1.13;;
57822;SDS011;43650;48.064;20.624;2022-07-17T02:49:04;1.15;;;0.77;;
57822;SDS011;43650;48.064;20.624;2022-07-17T02:50:06;2.33;;;0.90;;
57822;SDS011;43650;48.064;20.624;2022-07-17T02:51:07;3.62;;;1.10;;
57822;SDS011;43650;48.064;20.624;2022-07-17T02:52:08;1.20;;;0.98;;
57822;SDS011;43650;48.064;20.624;2022-07-17T02:53:08;1.60;;;0.80;;
57822;SDS011;43650;48.064;20.624;2022-07-17T02:54:09;1.30;;;0.90;;
57822;SDS011;43650;48.064;20.624;2022-07-17T02:55:09;1.17;;;0.80;;
57822;SDS011;43650;48.064;20.624;2022-07-17T02:56:10;2.12;;;1.08;;
57822;SDS011;43650;48.064;20.624;2022-07-17T02:57:11;2.10;;;0.80;;
57822;SDS011;43650;48.064;20.624;2022-07-17T02:58:12;1.10;;;0.80;;
57822;SDS011;43650;48.064;20.624;2022-07-17T02:59:13;2.12;;;0.90;;
57822;SDS011;43650;48.064;20.624;2022-07-17T03:00:15;2.70;;;0.97;;
57822;SDS011;43650;48.064;20.624;2022-07-17T03:01:16;1.83;;;0.90;;
57822;SDS011;43650;48.064;20.624;2022-07-17T03:02:17;2.53;;;1.00;;
57822;SDS011;43650;48.064;20.624;2022-07-17T03:03:17;3.00;;;1.10;;
57822;SDS011;43650;48.064;20.624;2022-07-17T03:04:20;1.37;;;0.90;;
57822;SDS011;43650;48.064;20.624;2022-07-17T03:05:20;1.60;;;0.93;;
57822;SDS011;43650;48.064;20.624;2022-07-17T03:06:21;1.00;;;0.77;;
57822;SDS011;43650;48.064;20.624;2022-07-17T03:07:21;1.10;;;0.97;;
57822;SDS011;43650;48.064;20.624;2022-07-17T03:08:22;1.63;;;1.20;;
57822;SDS011;43650;48.064;20.624;2022-07-17T03:09:22;1.30;;;0.80;;
57822;SDS011;43650;48.064;20.624;2022-07-17T03:10:23;2.40;;;1.10;;
57822;SDS011;43650;48.064;20.624;2022-07-17T03:11:23;1.40;;;0.87;;
57822;SDS011;43650;48.064;20.624;2022-07-17T03:12:24;1.73;;;1.00;;
57822;SDS011;43650;48.064;20.624;2022-07-17T03:13:24;1.53;;;0.83;;
57822;SDS011;43650;48.064;20.624;2022-07-17T03:14:24;1.47;;;1.03;;
57822;SDS011;43650;48.064;20.624;2022-07-17T03:15:25;0.80;;;0.80;;
57822;SDS011;43650;48.064;20.624;2022-07-17T03:16:25;1.10;;;0.90;;
57822;SDS011;43650;48.064;20.624;2022-07-17T03:17:26;3.40;;;1.00;;
57822;SDS011;43650;48.064;20.624;2022-07-17T03:18:26;0.90;;;0.67;;
57822;SDS011;43650;48.064;20.624;2022-07-17T03:19:27;1.00;;;0.90;;
57822;SDS011;43650;48.064;20.624;2022-07-17T03:20:27;1.83;;;0.67;;
57822;SDS011;43650;48.064;20.624;2022-07-17T03:21:28;0.77;;;0.70;;
57822;SDS011;43650;48.064;20.624;2022-07-17T03:22:28;1.90;;;1.03;;
57822;SDS011;43650;48.064;20.624;2022-07-17T03:23:29;2.03;;;0.90;;
57822;SDS011;43650;48.064;20.624;2022-07-17T03:24:29;2.60;;;1.30;;
57822;SDS011;43650;48.064;20.624;2022-07-17T03:25:29;2.03;;;1.00;;
57822;SDS011;43650;48.064;20.624;2022-07-17T03:26:30;1.00;;;0.82;;
57822;SDS011;43650;48.064;20.624;2022-07-17T03:27:31;2.40;;;0.77;;
57822;SDS011;43650;48.064;20.624;2022-07-17T03:28:31;2.93;;;0.90;;
57822;SDS011;43650;48.064;20.624;2022-07-17T03:29:32;1.73;;;0.80;;
57822;SDS011;43650;48.064;20.624;2022-07-17T03:30:32;1.33;;;1.23;;
57822;SDS011;43650;48.064;20.624;2022-07-17T03:31:33;1.50;;;0.80;;
57822;SDS011;43650;48.064;20.624;2022-07-17T03:32:33;1.40;;;1.30;;
57822;SDS011;43650;48.064;20.624;2022-07-17T03:33:34;2.65;;;1.45;;
57822;SDS011;43650;48.064;20.624;2022-07-17T03:34:34;2.65;;;0.90;;
57822;SDS011;43650;48.064;20.624;2022-07-17T03:35:35;2.10;;;0.97;;
57822;SDS011;43650;48.064;20.624;2022-07-17T03:36:36;1.45;;;0.80;;
57822;SDS011;43650;48.064;20.624;2022-07-17T03:37:37;2.17;;;1.17;;
57822;SDS011;43650;48.064;20.624;2022-07-17T03:38:38;1.20;;;0.73;;
57822;SDS011;43650;48.064;20.624;2022-07-17T03:39:39;1.43;;;0.70;;
57822;SDS011;43650;48.064;20.624;2022-07-17T03:40:39;1.53;;;1.00;;
57822;SDS011;43650;48.064;20.624;2022-07-17T03:41:40;2.20;;;0.70;;
57822;SDS011;43650;48.064;20.624;2022-07-17T03:42:40;1.13;;;0.63;;
57822;SDS011;43650;48.064;20.624;2022-07-17T03:43:41;1.47;;;0.90;;
57822;SDS011;43650;48.064;20.624;2022-07-17T03:44:41;1.00;;;0.87;;
57822;SDS011;43650;48.064;20.624;2022-07-17T03:45:42;1.80;;;0.73;;
57822;SDS011;43650;48.064;20.624;2022-07-17T03:46:42;1.75;;;1.10;;
57822;SDS011;43650;48.064;20.624;2022-07-17T03:47:43;0.63;;;0.60;;
57822;SDS011;43650;48.064;20.624;2022-07-17T03:48:43;2.47;;;1.13;;
57822;SDS011;43650;48.064;20.624;2022-07-17T03:49:44;2.45;;;0.95;;
57822;SDS011;43650;48.064;20.624;2022-07-17T03:50:44;2.57;;;0.73;;
57822;SDS011;43650;48.064;20.624;2022-07-17T03:51:44;1.47;;;1.07;;
57822;SDS011;43650;48.064;20.624;2022-07-17T03:52:45;0.93;;;0.70;;
57822;SDS011;43650;48.064;20.624;2022-07-17T03:53:45;1.43;;;0.80;;
57822;SDS011;43650;48.064;20.624;2022-07-17T03:54:46;0.80;;;0.50;;
57822;SDS011;43650;48.064;20.624;2022-07-17T03:55:46;1.00;;;0.73;;
57822;SDS011;43650;48.064;20.624;2022-07-17T03:56:47;1.67;;;0.90;;
57822;SDS011;43650;48.064;20.624;2022-07-17T03:57:47;3.27;;;0.90;;
57822;SDS011;43650;48.064;20.624;2022-07-17T03:58:48;1.60;;;0.73;;
57822;SDS011;43650;48.064;20.624;2022-07-17T03:59:48;1.17;;;0.70;;
57822;SDS011;43650;48.064;20.624;2022-07-17T04:00:49;1.13;;;0.97;;
57822;SDS011;43650;48.064;20.624;2022-07-17T04:01:49;1.37;;;0.80;;
57822;SDS011;43650;48.064;20.624;2022-07-17T04:02:50;0.93;;;0.70;;
57822;SDS011;43650;48.064;20.624;2022-07-17T04:03:50;2.23;;;0.80;;
57822;SDS011;43650;48.064;20.624;2022-07-17T04:04:50;1.83;;;0.70;;
57822;SDS011;43650;48.064;20.624;2022-07-17T04:05:51;1.20;;;0.77;;
57822;SDS011;43650;48.064;20.624;2022-07-17T04:06:52;0.98;;;0.70;;
57822;SDS011;43650;48.064;20.624;2022-07-17T04:07:52;1.17;;;0.70;;
57822;SDS011;43650;48.064;20.624;2022-07-17T04:08:52;1.17;;;0.90;;
57822;SDS011;43650;48.064;20.624;2022-07-17T04:09:57;0.60;;;0.50;;
57822;SDS011;43650;48.064;20.624;2022-07-17T04:10:58;1.05;;;0.73;;
57822;SDS011;43650;48.064;20.624;2022-07-17T04:11:58;6.10;;;0.83;;
57822;SDS011;43650;48.064;20.624;2022-07-17T04:12:59;1.67;;;0.60;;
57822;SDS011;43650;48.064;20.624;2022-07-17T04:13:59;1.47;;;0.70;;
57822;SDS011;43650;48.064;20.624;2022-07-17T04:15:00;0.53;;;0.43;;
57822;SDS011;43650;48.064;20.624;2022-07-17T04:16:00;1.13;;;0.73;;
57822;SDS011;43650;48.064;20.624;2022-07-17T04:17:01;1.27;;;0.62;;
57822;SDS011;43650;48.064;20.624;2022-07-17T04:18:01;1.27;;;0.77;;
57822;SDS011;43650;48.064;20.624;2022-07-17T04:19:02;0.93;;;0.70;;
57822;SDS011;43650;48.064;20.624;2022-07-17T04:20:02;1.00;;;0.60;;
57822;SDS011;43650;48.064;20.624;2022-07-17T04:21:05;0.98;;;0.50;;
57822;SDS011;43650;48.064;20.624;2022-07-17T04:22:06;1.05;;;0.90;;
57822;SDS011;43650;48.064;20.624;2022-07-17T04:23:07;2.30;;;0.67;;
57822;SDS011;43650;48.064;20.624;2022-07-17T04:24:07;2.10;;;0.53;;
57822;SDS011;43650;48.064;20.624;2022-07-17T04:25:08;1.50;;;1.00;;
57822;SDS011;43650;48.064;20.624;2022-07-17T04:26:08;3.25;;;1.17;;
57822;SDS011;43650;48.064;20.624;2022-07-17T04:27:09;2.17;;;0.87;;
57822;SDS011;43650;48.064;20.624;2022-07-17T04:28:09;1.50;;;0.70;;
57822;SDS011;43650;48.064;20.624;2022-07-17T04:29:10;1.95;;;0.80;;
57822;SDS011;43650;48.064;20.624;2022-07-17T04:30:11;1.00;;;0.60;;
57822;SDS011;43650;48.064;20.624;2022-07-17T04:31:11;1.43;;;0.60;;
57822;SDS011;43650;48.064;20.624;2022-07-17T04:32:12;0.85;;;0.52;;
57822;SDS011;43650;48.064;20.624;2022-07-17T04:33:13;1.13;;;0.60;;
57822;SDS011;43650;48.064;20.624;2022-07-17T04:34:13;1.30;;;0.60;;
57822;SDS011;43650;48.064;20.624;2022-07-17T04:35:14;3.40;;;0.60;;
57822;SDS011;43650;48.064;20.624;2022-07-17T04:36:14;0.88;;;0.73;;
57822;SDS011;43650;48.064;20.624;2022-07-17T04:37:15;1.80;;;0.83;;
57822;SDS011;43650;48.064;20.624;2022-07-17T04:38:15;1.70;;;0.70;;
57822;SDS011;43650;48.064;20.624;2022-07-17T04:39:16;1.50;;;0.70;;
57822;SDS011;43650;48.064;20.624;2022-07-17T04:40:16;2.87;;;0.63;;
57822;SDS011;43650;48.064;20.624;2022-07-17T04:41:17;0.90;;;0.60;;
57822;SDS011;43650;48.064;20.624;2022-07-17T04:42:17;2.67;;;0.80;;
57822;SDS011;43650;48.064;20.624;2022-07-17T04:43:17;3.40;;;0.93;;
57822;SDS011;43650;48.064;20.624;2022-07-17T04:44:18;2.10;;;0.83;;
57822;SDS011;43650;48.064;20.624;2022-07-17T04:45:19;1.08;;;0.60;;
57822;SDS011;43650;48.064;20.624;2022-07-17T04:46:19;1.30;;;0.67;;
57822;SDS011;43650;48.064;20.624;2022-07-17T04:47:20;0.97;;;0.80;;
57822;SDS011;43650;48.064;20.624;2022-07-17T04:48:20;0.97;;;0.83;;
57822;SDS011;43650;48.064;20.624;2022-07-17T04:49:20;1.53;;;0.70;;
57822;SDS011;43650;48.064;20.624;2022-07-17T04:50:21;3.13;;;0.70;;
57822;SDS011;43650;48.064;20.624;2022-07-17T04:51:21;0.50;;;0.50;;
57822;SDS011;43650;48.064;20.624;2022-07-17T04:52:22;1.83;;;0.77;;
57822;SDS011;43650;48.064;20.624;2022-07-17T04:53:22;1.70;;;0.50;;
57822;SDS011;43650;48.064;20.624;2022-07-17T04:54:23;1.20;;;0.73;;
57822;SDS011;43650;48.064;20.624;2022-07-17T04:55:23;1.33;;;0.50;;
57822;SDS011;43650;48.064;20.624;2022-07-17T04:56:24;2.90;;;0.57;;
57822;SDS011;43650;48.064;20.624;2022-07-17T04:57:24;0.70;;;0.53;;
57822;SDS011;43650;48.064;20.624;2022-07-17T04:58:25;0.67;;;0.47;;
57822;SDS011;43650;48.064;20.624;2022-07-17T04:59:25;1.00;;;0.70;;
57822;SDS011;43650;48.064;20.624;2022-07-17T05:00:25;0.90;;;0.57;;
57822;SDS011;43650;48.064;20.624;2022-07-17T05:01:27;1.77;;;0.60;;
57822;SDS011;43650;48.064;20.624;2022-07-17T05:02:27;1.60;;;0.77;;
57822;SDS011;43650;48.064;20.624;2022-07-17T05:03:27;1.10;;;0.80;;
57822;SDS011;43650;48.064;20.624;2022-07-17T05:04:28;1.73;;;0.50;;
57822;SDS011;43650;48.064;20.624;2022-07-17T05:05:29;1.10;;;0.60;;
57822;SDS011;43650;48.064;20.624;2022-07-17T05:06:29;2.13;;;0.70;;
57822;SDS011;43650;48.064;20.624;2022-07-17T05:07:30;1.90;;;0.90;;
57822;SDS011;43650;48.064;20.624;2022-07-17T05:08:30;0.82;;;0.55;;
57822;SDS011;43650;48.064;20.624;2022-07-17T05:09:31;1.20;;;0.60;;
57822;SDS011;43650;48.064;20.624;2022-07-17T05:10:31;2.13;;;0.60;;
57822;SDS011;43650;48.064;20.624;2022-07-17T05:11:32;1.10;;;0.73;;
57822;SDS011;43650;48.064;20.624;2022-07-17T05:12:32;2.10;;;0.53;;
57822;SDS011;43650;48.064;20.624;2022-07-17T05:13:33;0.93;;;0.60;;
57822;SDS011;43650;48.064;20.624;2022-07-17T05:14:33;4.50;;;0.97;;
57822;SDS011;43650;48.064;20.624;2022-07-17T05:15:34;1.00;;;0.70;;
57822;SDS011;43650;48.064;20.624;2022-07-17T05:16:34;1.13;;;0.80;;
57822;SDS011;43650;48.064;20.624;2022-07-17T05:17:35;0.80;;;0.80;;
57822;SDS011;43650;48.064;20.624;2022-07-17T05:18:35;2.03;;;0.60;;
57822;SDS011;43650;48.064;20.624;2022-07-17T05:19:36;2.37;;;0.63;;
57822;SDS011;43650;48.064;20.624;2022-07-17T05:21:39;0.70;;;0.60;;
57822;SDS011;43650;48.064;20.624;2022-07-17T05:22:39;1.10;;;0.60;;
57822;SDS011;43650;48.064;20.624;2022-07-17T05:23:40;2.78;;;0.70;;
57822;SDS011;43650;48.064;20.624;2022-07-17T05:24:41;2.40;;;0.73;;
57822;SDS011;43650;48.064;20.624;2022-07-17T05:25:41;2.97;;;1.17;;
57822;SDS011;43650;48.064;20.624;2022-07-17T05:26:43;1.05;;;0.80;;
57822;SDS011;43650;48.064;20.624;2022-07-17T05:27:44;3.50;;;0.70;;
57822;SDS011;43650;48.064;20.624;2022-07-17T05:28:44;2.53;;;0.50;;
57822;SDS011;43650;48.064;20.624;2022-07-17T05:29:45;0.70;;;0.50;;
57822;SDS011;43650;48.064;20.624;2022-07-17T05:30:45;1.27;;;0.70;;
57822;SDS011;43650;48.064;20.624;2022-07-17T05:31:46;1.03;;;0.70;;
57822;SDS011;43650;48.064;20.624;2022-07-17T05:32:46;1.73;;;0.82;;
57822;SDS011;43650;48.064;20.624;2022-07-17T05:33:47;2.13;;;0.83;;
57822;SDS011;43650;48.064;20.624;2022-07-17T05:34:47;1.40;;;0.83;;
57822;SDS011;43650;48.064;20.624;2022-07-17T05:35:47;0.97;;;0.60;;
57822;SDS011;43650;48.064;20.624;2022-07-17T05:36:48;2.40;;;0.43;;
57822;SDS011;43650;48.064;20.624;2022-07-17T05:37:49;0.88;;;0.55;;
57822;SDS011;43650;48.064;20.624;2022-07-17T05:38:49;0.80;;;0.53;;
57822;SDS011;43650;48.064;20.624;2022-07-17T05:39:50;1.17;;;0.60;;
57822;SDS011;43650;48.064;20.624;2022-07-17T05:40:50;0.55;;;0.40;;
57822;SDS011;43650;48.064;20.624;2022-07-17T05:41:51;1.13;;;0.50;;
57822;SDS011;43650;48.064;20.624;2022-07-17T05:42:51;1.97;;;0.60;;
57822;SDS011;43650;48.064;20.624;2022-07-17T05:43:51;1.90;;;0.87;;
57822;SDS011;43650;48.064;20.624;2022-07-17T05:44:52;2.97;;;0.90;;
57822;SDS011;43650;48.064;20.624;2022-07-17T05:45:53;1.30;;;0.53;;
57822;SDS011;43650;48.064;20.624;2022-07-17T05:46:54;0.90;;;0.50;;
57822;SDS011;43650;48.064;20.624;2022-07-17T05:47:55;1.00;;;0.50;;
57822;SDS011;43650;48.064;20.624;2022-07-17T05:48:55;0.90;;;0.70;;
57822;SDS011;43650;48.064;20.624;2022-07-17T05:49:56;3.13;;;0.80;;
57822;SDS011;43650;48.064;20.624;2022-07-17T05:50:57;1.08;;;0.62;;
57822;SDS011;43650;48.064;20.624;2022-07-17T05:51:57;1.52;;;0.90;;
57822;SDS011;43650;48.064;20.624;2022-07-17T05:52:57;1.33;;;0.87;;
57822;SDS011;43650;48.064;20.624;2022-07-17T05:53:58;3.73;;;0.87;;
57822;SDS011;43650;48.064;20.624;2022-07-17T05:54:58;0.97;;;0.63;;
57822;SDS011;43650;48.064;20.624;2022-07-17T05:55:59;2.70;;;0.90;;
57822;SDS011;43650;48.064;20.624;2022-07-17T05:57:00;1.23;;;0.70;;
57822;SDS011;43650;48.064;20.624;2022-07-17T05:58:01;0.77;;;0.57;;
57822;SDS011;43650;48.064;20.624;2022-07-17T05:59:01;3.67;;;0.80;;
57822;SDS011;43650;48.064;20.624;2022-07-17T06:00:02;1.23;;;0.60;;
57822;SDS011;43650;48.064;20.624;2022-07-17T06:01:03;1.95;;;0.52;;
57822;SDS011;43650;48.064;20.624;2022-07-17T06:02:04;2.13;;;0.80;;
57822;SDS011;43650;48.064;20.624;2022-07-17T06:03:05;1.20;;;0.50;;
57822;SDS011;43650;48.064;20.624;2022-07-17T06:04:05;0.85;;;0.55;;